Time;durP1;ratioP1;P1;durP2;ratioP2;P2;SDS_P1;SDS_P2;PMS_P1;PMS_P2;Temp;Humidity;BMP_temperature;BMP_pressure;BME280_temperature;BME280_humidity;BME280_pressure;Samples;Min_cycle;Max_cycle;Signal;HPM_P1;HPM_P2
2023/09/12 00:02:00;;;;;;;4.70;1.35;;;;;;;10.76;100.00;101092.09;5011949;28;20093;-88
2023/09/12 00:04:26;;;;;;;6.10;1.60;;;;;;;10.66;100.00;101090.59;5011874;28;20041;-87
2023/09/12 00:06:51;;;;;;;4.93;1.58;;;;;;;10.57;100.00;101092.44;5011828;28;20520;-88
2023/09/12 00:09:17;;;;;;;3.88;1.30;;;;;;;10.55;100.00;101100.66;5011305;28;20462;-88
2023/09/12 00:11:42;;;;;;;6.07;1.30;;;;;;;10.51;100.00;101101.19;5011617;28;20030;-88
2023/09/12 00:14:15;;;;;;;3.08;1.35;;;;;;;10.48;100.00;101110.44;4996069;28;20035;-88
2023/09/12 00:16:41;;;;;;;2.17;1.30;;;;;;;10.42;100.00;101105.69;4996344;28;20030;-88
2023/09/12 00:19:06;;;;;;;3.75;1.48;;;;;;;10.43;100.00;101106.56;4995061;28;20030;-88
2023/09/12 00:21:32;;;;;;;3.83;1.30;;;;;;;10.41;100.00;101100.50;4995335;28;20046;-87
2023/09/12 00:23:57;;;;;;;5.63;1.48;;;;;;;10.39;100.00;101114.09;4995333;28;20139;-88
2023/09/12 00:26:23;;;;;;;6.18;1.27;;;;;;;10.36;100.00;101110.91;4995674;28;20030;-88
2023/09/12 00:28:48;;;;;;;3.10;1.02;;;;;;;10.33;100.00;101112.91;4995754;28;20173;-88
2023/09/12 00:31:14;;;;;;;7.65;2.13;;;;;;;10.21;100.00;101110.69;4995931;28;20413;-88
2023/09/12 00:33:40;;;;;;;4.75;1.65;;;;;;;10.16;100.00;101123.75;4995063;28;20034;-88
2023/09/12 00:36:05;;;;;;;3.25;1.38;;;;;;;10.06;100.00;101122.06;4979011;28;20023;-89
2023/09/12 00:38:31;;;;;;;5.85;2.40;;;;;;;10.00;100.00;101119.19;5011193;28;20366;-88
2023/09/12 00:40:56;;;;;;;5.90;1.90;;;;;;;9.98;100.00;101123.91;4994729;28;20034;-87
2023/09/12 00:43:22;;;;;;;6.32;1.58;;;;;;;9.84;100.00;101112.78;5010260;28;20030;-88
2023/09/12 00:45:48;;;;;;;4.18;1.38;;;;;;;9.79;100.00;101128.53;4997067;28;20480;-87
2023/09/12 00:48:13;;;;;;;4.53;1.38;;;;;;;9.67;100.00;101122.59;4996770;28;20121;-87
2023/09/12 00:50:39;;;;;;;5.95;1.42;;;;;;;9.67;100.00;101116.38;4995617;28;20026;-88
2023/09/12 00:53:05;;;;;;;5.68;1.45;;;;;;;9.57;100.00;101129.91;5010968;28;20054;-88
2023/09/12 00:55:32;;;;;;;3.65;1.33;;;;;;;9.56;100.00;101130.94;5010815;28;20445;-88
2023/09/12 00:57:58;;;;;;;3.72;1.30;;;;;;;9.37;100.00;101123.97;5010631;28;20026;-88
2023/09/12 01:00:25;;;;;;;3.97;1.40;;;;;;;9.39;100.00;101127.34;5010712;28;20041;-87
2023/09/12 01:02:53;;;;;;;5.40;1.23;;;;;;;9.28;100.00;101122.22;4994329;28;20038;-88
2023/09/12 01:05:19;;;;;;;5.18;1.60;;;;;;;9.28;100.00;101126.75;4995554;28;20026;-87
2023/09/12 01:07:44;;;;;;;4.00;2.20;;;;;;;9.36;100.00;101129.47;5010383;28;20037;-88
2023/09/12 01:10:10;;;;;;;9.82;1.90;;;;;;;9.25;100.00;101127.91;4994220;28;20023;-88
2023/09/12 01:12:36;;;;;;;7.35;1.90;;;;;;;9.18;100.00;101133.06;5010187;28;20038;-87
2023/09/12 01:15:05;;;;;;;7.70;1.83;;;;;;;9.15;100.00;101128.00;5010439;28;20064;-88
2023/09/12 01:17:31;;;;;;;6.70;1.60;;;;;;;9.09;100.00;101125.94;4977956;28;20390;-88
2023/09/12 01:19:57;;;;;;;4.18;1.70;;;;;;;9.04;100.00;101122.91;4993788;28;20041;-87
2023/09/12 01:23:00;;;;;;;5.20;1.77;;;;;;;9.07;100.00;101129.78;5010300;28;20116;-87
2023/09/12 01:25:57;;;;;;;2.85;1.25;;;;;;;8.95;100.00;101126.53;4995156;28;20023;-88
2023/09/12 01:28:25;;;;;;;6.00;1.48;;;;;;;8.89;100.00;101133.38;4977934;28;20045;-88
2023/09/12 01:30:51;;;;;;;8.55;1.50;;;;;;;8.82;100.00;101134.13;4993851;28;20492;-89
2023/09/12 01:33:17;;;;;;;2.90;1.50;;;;;;;8.89;100.00;101138.72;4993898;28;20066;-87
2023/09/12 01:35:43;;;;;;;2.90;1.17;;;;;;;8.88;100.00;101136.19;4995225;28;20038;-88
2023/09/12 01:38:09;;;;;;;5.63;1.88;;;;;;;8.80;100.00;101131.59;4994680;28;20132;-87
2023/09/12 01:40:40;;;;;;;4.78;1.33;;;;;;;8.66;100.00;101134.84;5010039;28;20629;-87
2023/09/12 01:43:06;;;;;;;4.72;1.58;;;;;;;8.59;100.00;101143.47;4993733;28;20033;-88
2023/09/12 01:45:32;;;;;;;7.47;1.50;;;;;;;8.53;100.00;101141.41;4993585;28;20556;-87
2023/09/12 01:47:58;;;;;;;5.30;1.52;;;;;;;8.48;100.00;101149.06;4993784;28;20483;-88
2023/09/12 01:50:25;;;;;;;3.50;1.40;;;;;;;8.43;100.00;101147.84;5017605;28;20095;-87
2023/09/12 01:52:51;;;;;;;3.00;1.48;;;;;;;8.41;100.00;101145.31;4987437;28;20046;-87
2023/09/12 01:55:17;;;;;;;5.95;1.67;;;;;;;8.38;100.00;101145.59;4995923;28;20382;-87
2023/09/12 01:57:43;;;;;;;6.18;1.60;;;;;;;8.30;100.00;101159.75;5009641;28;20030;-90
2023/09/12 02:00:09;;;;;;;3.80;1.45;;;;;;;8.26;100.00;101153.00;4993266;28;20489;-87
2023/09/12 02:02:35;;;;;;;3.30;1.60;;;;;;;8.25;100.00;101150.47;5009477;28;20038;-88
2023/09/12 02:05:11;;;;;;;5.75;1.35;;;;;;;8.19;100.00;101159.13;4994552;28;20449;-88
2023/09/12 02:07:38;;;;;;;3.17;1.50;;;;;;;8.09;100.00;101159.16;5009510;28;20049;-88
2023/09/12 02:10:07;;;;;;;7.70;1.75;;;;;;;7.95;100.00;101149.81;4993592;28;20034;-88
2023/09/12 02:12:33;;;;;;;5.30;1.60;;;;;;;7.85;100.00;101154.38;4993457;28;20133;-89
2023/09/12 02:14:58;;;;;;;8.73;2.38;;;;;;;7.79;100.00;101160.31;4993761;28;20165;-88
2023/09/12 02:17:24;;;;;;;4.63;1.80;;;;;;;7.72;100.00;101149.34;4994512;28;20031;-88
2023/09/12 02:19:49;;;;;;;6.70;1.52;;;;;;;7.89;100.00;101151.25;4993582;28;20041;-88
2023/09/12 02:22:15;;;;;;;7.05;1.63;;;;;;;7.94;100.00;101156.16;5009685;28;20030;-88
2023/09/12 02:24:41;;;;;;;6.45;2.20;;;;;;;8.00;100.00;101160.91;5009715;28;20034;-88
2023/09/12 02:27:06;;;;;;;3.45;1.50;;;;;;;7.96;100.00;101164.03;5009410;28;20101;-88
2023/09/12 02:29:34;;;;;;;6.93;1.88;;;;;;;7.92;100.00;101158.97;4993260;28;20129;-87
2023/09/12 02:32:00;;;;;;;6.10;1.60;;;;;;;7.88;100.00;101157.56;4993380;28;20130;-87
2023/09/12 02:34:26;;;;;;;5.28;1.50;;;;;;;7.76;100.00;101160.63;4993230;28;20468;-87
2023/09/12 02:36:51;;;;;;;11.25;2.00;;;;;;;7.69;100.00;101163.03;4993350;28;20477;-86
2023/09/12 02:39:17;;;;;;;5.18;1.60;;;;;;;7.58;100.00;101163.22;5009360;28;20121;-87
2023/09/12 02:41:42;;;;;;;5.82;1.75;;;;;;;7.56;100.00;101165.19;5009294;28;20369;-89
2023/09/12 02:44:08;;;;;;;5.93;1.63;;;;;;;7.60;100.00;101161.25;4994183;28;20027;-89
2023/09/12 02:46:34;;;;;;;4.95;1.50;;;;;;;7.57;100.00;101172.22;4992989;28;20029;-87
2023/09/12 02:48:59;;;;;;;8.80;2.17;;;;;;;7.59;100.00;101167.56;4994143;28;20027;-86
2023/09/12 02:51:26;;;;;;;4.63;2.05;;;;;;;7.57;100.00;101173.09;5009082;28;20502;-87
2023/09/12 02:53:51;;;;;;;5.68;1.88;;;;;;;7.48;100.00;101161.41;5010777;28;20027;-86
2023/09/12 02:56:17;;;;;;;6.28;1.80;;;;;;;7.49;100.00;101171.13;4996786;28;20070;-87
2023/09/12 02:58:46;;;;;;;7.32;2.03;;;;;;;7.43;100.00;101166.34;4997586;28;20161;-87
2023/09/12 03:01:16;;;;;;;6.20;1.77;;;;;;;7.39;100.00;101174.84;4994205;28;20065;-87
2023/09/12 03:03:42;;;;;;;3.95;1.60;;;;;;;7.40;100.00;101177.34;4992896;28;20087;-87
2023/09/12 03:06:07;;;;;;;5.47;1.80;;;;;;;7.44;100.00;101181.44;5010193;28;20117;-87
2023/09/12 03:08:33;;;;;;;5.72;1.98;;;;;;;7.38;100.00;101179.34;5012567;28;20393;-87
2023/09/12 03:10:58;;;;;;;4.50;1.70;;;;;;;7.34;100.00;101182.44;4996040;28;20105;-87
2023/09/12 03:13:25;;;;;;;8.38;1.77;;;;;;;7.26;100.00;101181.31;4996548;28;20039;-87
2023/09/12 03:15:51;;;;;;;7.47;2.05;;;;;;;7.35;100.00;101184.97;4996040;28;20030;-86
2023/09/12 03:18:16;;;;;;;8.65;1.95;;;;;;;7.42;100.00;101177.22;5012443;28;20087;-86
2023/09/12 03:20:42;;;;;;;4.63;1.80;;;;;;;7.46;100.00;101184.81;5012624;28;20022;-86
2023/09/12 03:23:07;;;;;;;9.32;1.83;;;;;;;7.44;100.00;101178.75;4997994;28;20473;-86
2023/09/12 03:25:40;;;;;;;5.43;1.98;;;;;;;7.45;100.00;101175.06;4997044;28;20042;-87
2023/09/12 03:28:06;;;;;;;13.63;2.00;;;;;;;7.36;100.00;101175.97;4996498;28;20041;-86
2023/09/12 03:30:34;;;;;;;8.05;2.13;;;;;;;7.38;100.00;101175.81;4996118;28;20061;-86
2023/09/12 03:32:59;;;;;;;6.10;2.00;;;;;;;7.30;100.00;101175.69;4997284;28;20049;-88
2023/09/12 03:35:25;;;;;;;10.07;2.20;;;;;;;7.34;100.00;101175.25;4979826;28;20035;-86
2023/09/12 03:37:51;;;;;;;8.73;3.17;;;;;;;7.37;100.00;101179.47;5012242;28;20041;-86
2023/09/12 03:40:16;;;;;;;5.60;1.70;;;;;;;7.40;100.00;101185.38;5012416;28;20109;-88
2023/09/12 03:42:42;;;;;;;8.70;2.20;;;;;;;7.31;100.00;101183.56;4995628;28;20062;-87
2023/09/12 03:45:08;;;;;;;5.57;1.67;;;;;;;7.25;100.00;101178.78;5011948;28;20057;-87
2023/09/12 03:47:34;;;;;;;8.40;1.88;;;;;;;7.27;100.00;101182.16;4996635;28;20030;-87
2023/09/12 03:49:59;;;;;;;7.82;1.73;;;;;;;7.29;100.00;101195.41;4995655;28;20034;-87
2023/09/12 03:52:25;;;;;;;5.40;2.08;;;;;;;7.22;100.00;101179.06;5011768;28;20529;-86
2023/09/12 03:54:50;;;;;;;5.88;1.92;;;;;;;7.25;100.00;101189.47;5011730;28;20552;-87
2023/09/12 03:57:16;;;;;;;9.30;1.98;;;;;;;7.32;100.00;101179.06;5011428;28;20022;-87
2023/09/12 03:59:42;;;;;;;5.45;2.20;;;;;;;7.42;100.00;101186.06;4995010;28;20030;-87
2023/09/12 04:02:08;;;;;;;6.40;1.83;;;;;;;7.48;100.00;101185.47;5011460;28;20033;-87
2023/09/12 04:04:34;;;;;;;6.78;1.80;;;;;;;7.65;100.00;101191.09;4994974;28;20053;-86
2023/09/12 04:06:59;;;;;;;10.35;2.42;;;;;;;7.70;100.00;101192.34;4996179;28;20034;-88
2023/09/12 04:09:25;;;;;;;3.30;1.40;;;;;;;7.71;100.00;101185.16;4995269;28;20042;-87
2023/09/12 04:11:51;;;;;;;6.80;1.60;;;;;;;7.67;100.00;101191.75;4995615;28;20030;-87
2023/09/12 04:14:16;;;;;;;9.90;2.03;;;;;;;7.58;100.00;101192.66;5011150;28;20385;-86
2023/09/12 04:16:42;;;;;;;7.28;1.83;;;;;;;7.52;100.00;101187.91;4995453;28;20042;-87
2023/09/12 04:19:07;;;;;;;4.65;1.83;;;;;;;7.43;100.00;101186.91;4995466;28;20113;-87
2023/09/12 04:21:33;;;;;;;6.18;1.83;;;;;;;7.36;100.00;101197.38;4995006;28;20027;-89
2023/09/12 04:23:58;;;;;;;6.65;1.80;;;;;;;7.37;100.00;101195.53;5011111;28;20030;-86
2023/09/12 04:26:24;;;;;;;4.82;2.05;;;;;;;7.29;100.00;101201.59;4994731;28;20042;-87
2023/09/12 04:28:50;;;;;;;6.22;1.67;;;;;;;7.17;100.00;101197.38;4995361;28;20027;-86
2023/09/12 04:31:16;;;;;;;4.45;1.85;;;;;;;7.19;100.00;101195.41;5011174;28;20030;-86
2023/09/12 04:33:42;;;;;;;9.32;2.10;;;;;;;7.29;100.00;101204.25;4997919;28;20038;-85
2023/09/12 04:36:07;;;;;;;5.43;1.88;;;;;;;7.31;100.00;101201.47;5000643;28;20034;-86
2023/09/12 04:38:33;;;;;;;9.13;2.40;;;;;;;7.35;100.00;101216.22;5011910;28;20031;-88
2023/09/12 04:41:04;;;;;;;8.80;1.70;;;;;;;7.31;100.00;101202.31;4994645;28;20041;-87
2023/09/12 04:43:31;;;;;;;3.42;1.55;;;;;;;7.37;100.00;101214.25;4995015;28;20035;-87
2023/09/12 04:45:56;;;;;;;11.82;1.95;;;;;;;7.37;100.00;101217.75;4994492;28;20393;-87
2023/09/12 04:48:22;;;;;;;7.25;1.85;;;;;;;7.35;100.00;101217.06;4994800;28;20040;-86
2023/09/12 04:50:48;;;;;;;5.72;1.40;;;;;;;7.36;100.00;101216.09;4978720;28;20478;-86
2023/09/12 04:53:13;;;;;;;9.52;1.77;;;;;;;7.41;100.00;101220.97;4994658;28;20397;-86
2023/09/12 04:55:39;;;;;;;4.82;1.58;;;;;;;7.41;100.00;101220.97;4995488;28;20037;-86
2023/09/12 04:58:05;;;;;;;5.50;1.42;;;;;;;7.29;100.00;101228.34;4994218;28;20042;-85
2023/09/12 05:00:31;;;;;;;7.38;1.40;;;;;;;7.15;100.00;101226.97;4994484;28;20057;-88
2023/09/12 05:02:57;;;;;;;6.07;1.77;;;;;;;7.04;100.00;101219.94;5010587;28;20546;-86
2023/09/12 05:05:22;;;;;;;7.65;1.58;;;;;;;6.99;100.00;101227.53;5010687;28;20065;-87
2023/09/12 05:07:48;;;;;;;8.55;1.88;;;;;;;6.98;100.00;101225.81;4995399;28;20042;-87
2023/09/12 05:10:13;;;;;;;3.67;1.40;;;;;;;7.04;100.00;101241.31;5010141;28;20031;-87
2023/09/12 05:12:39;;;;;;;3.38;1.60;;;;;;;7.03;100.00;101230.75;4994072;28;20465;-87
2023/09/12 05:15:05;;;;;;;6.55;1.48;;;;;;;6.93;100.00;101244.13;4977814;28;20048;-87
2023/09/12 05:17:31;;;;;;;3.05;1.17;;;;;;;6.85;100.00;101232.44;4995053;28;20026;-86
2023/09/12 05:19:56;;;;;;;7.70;1.70;;;;;;;6.88;100.00;101241.03;5009878;28;20037;-86
2023/09/12 05:22:22;;;;;;;7.32;1.38;;;;;;;6.78;100.00;101254.38;4993773;28;20038;-86
2023/09/12 05:24:48;;;;;;;4.57;1.40;;;;;;;6.67;100.00;101256.31;4995063;28;20033;-86
2023/09/12 05:27:14;;;;;;;8.40;1.52;;;;;;;6.58;100.00;101252.66;4993776;28;20362;-86
2023/09/12 05:29:39;;;;;;;4.78;1.58;;;;;;;6.58;100.00;101266.03;4994849;28;20027;-88
2023/09/12 05:32:05;;;;;;;7.70;1.55;;;;;;;6.66;100.00;101257.31;4994759;28;20540;-86
2023/09/12 05:34:31;;;;;;;4.63;1.38;;;;;;;6.82;100.00;101262.97;5009746;28;20030;-86
2023/09/12 05:36:57;;;;;;;7.47;1.67;;;;;;;6.89;100.00;101266.78;4993830;28;20406;-86
2023/09/12 05:39:22;;;;;;;4.85;1.67;;;;;;;6.92;100.00;101271.00;4993722;28;20034;-87
2023/09/12 05:41:49;;;;;;;5.95;1.55;;;;;;;6.94;100.00;101274.38;5009885;28;20489;-86
2023/09/12 05:44:18;;;;;;;5.95;1.85;;;;;;;6.98;100.00;101273.94;4977338;28;20033;-86
2023/09/12 05:46:47;;;;;;;7.22;1.70;;;;;;;6.88;100.00;101278.47;5009379;28;20038;-86
2023/09/12 05:49:14;;;;;;;5.13;1.70;;;;;;;6.81;100.00;101272.81;4977252;28;20042;-86
2023/09/12 05:51:40;;;;;;;7.53;1.67;;;;;;;6.94;100.00;101277.06;5009770;28;20492;-86
2023/09/12 05:54:06;;;;;;;8.52;2.13;;;;;;;7.03;100.00;101271.69;4993445;28;20034;-86
2023/09/12 05:56:32;;;;;;;11.05;1.92;;;;;;;7.04;100.00;101275.25;4993387;28;20030;-88
2023/09/12 05:58:57;;;;;;;6.70;1.90;;;;;;;6.94;100.00;101280.56;4994370;28;20033;-86
2023/09/12 06:01:23;;;;;;;6.40;2.13;;;;;;;6.94;100.00;101279.72;4992860;28;20118;-86
2023/09/12 06:03:52;;;;;;;6.22;1.95;;;;;;;7.01;100.00;101283.50;4993669;28;20046;-86
2023/09/12 06:06:17;;;;;;;7.38;1.75;;;;;;;7.02;100.00;101279.88;4993779;28;20129;-86
2023/09/12 06:08:43;;;;;;;6.75;1.95;;;;;;;7.20;100.00;101282.69;4978038;28;20045;-85
2023/09/12 06:11:09;;;;;;;5.10;1.92;;;;;;;7.20;100.00;101278.19;4994049;28;20026;-86
2023/09/12 06:13:37;;;;;;;8.57;1.70;;;;;;;7.19;100.00;101273.81;4993639;28;20030;-86
2023/09/12 06:16:06;;;;;;;4.65;1.60;;;;;;;7.15;100.00;101279.59;5009147;28;20060;-86
2023/09/12 06:18:35;;;;;;;5.45;1.58;;;;;;;7.16;100.00;101294.66;4993329;28;20069;-86
2023/09/12 06:21:07;;;;;;;11.52;2.05;;;;;;;7.06;100.00;101289.28;4994341;28;20039;-86
2023/09/12 06:23:32;;;;;;;8.40;2.28;;;;;;;6.95;100.00;101300.13;4994491;28;20073;-87
2023/09/12 06:25:58;;;;;;;5.82;1.60;;;;;;;7.03;100.00;101301.09;5009297;28;20062;-87
2023/09/12 06:28:28;;;;;;;7.28;1.70;;;;;;;7.12;100.00;101302.13;4992601;28;20401;-87
2023/09/12 06:30:53;;;;;;;6.72;1.38;;;;;;;7.16;100.00;101305.34;5009695;28;20623;-87
2023/09/12 06:33:23;;;;;;;5.35;1.60;;;;;;;7.35;100.00;101316.03;4993151;28;20556;-86
2023/09/12 06:35:50;;;;;;;6.43;1.83;;;;;;;7.52;100.00;101313.66;4992733;28;20033;-87
2023/09/12 06:38:16;;;;;;;10.57;2.00;;;;;;;7.63;100.00;101317.00;4992835;28;20057;-86
2023/09/12 06:40:47;;;;;;;6.72;1.90;;;;;;;7.69;100.00;101312.91;4993706;28;20029;-86
2023/09/12 06:43:12;;;;;;;6.70;1.50;;;;;;;7.72;100.00;101318.81;5012972;28;20034;-85
2023/09/12 06:45:40;;;;;;;9.68;1.70;;;;;;;7.77;100.00;101323.75;4996765;28;20157;-86
2023/09/12 06:48:05;;;;;;;6.53;1.63;;;;;;;7.80;100.00;101328.81;5013090;28;20030;-86
2023/09/12 06:50:31;;;;;;;4.43;1.30;;;;;;;7.80;100.00;101328.81;5012874;28;20046;-88
2023/09/12 06:52:56;;;;;;;4.93;1.50;;;;;;;7.79;100.00;101335.16;4997626;28;20034;-87
2023/09/12 06:55:22;;;;;;;10.40;1.70;;;;;;;7.81;100.00;101338.56;5013080;28;20070;-87
2023/09/12 06:57:48;;;;;;;5.45;1.50;;;;;;;7.80;100.00;101344.03;5002399;28;20034;-86
2023/09/12 07:00:14;;;;;;;5.55;1.25;;;;;;;7.80;100.00;101344.88;5004926;28;20461;-87
2023/09/12 07:02:39;;;;;;;5.25;1.42;;;;;;;7.83;100.00;101344.63;5015324;28;20031;-89
2023/09/12 07:05:05;;;;;;;5.38;1.50;;;;;;;7.92;100.00;101354.44;4999224;28;20026;-90
2023/09/12 07:07:32;;;;;;;4.03;1.67;;;;;;;8.08;100.00;101345.81;4997932;28;20120;-89
2023/09/12 07:09:57;;;;;;;5.10;1.30;;;;;;;8.20;100.00;101349.16;4997746;28;20034;-87
2023/09/12 07:12:23;;;;;;;7.97;1.80;;;;;;;8.29;100.00;101358.16;5013393;28;20037;-90
2023/09/12 07:14:50;;;;;;;3.88;1.50;;;;;;;8.35;100.00;101355.72;4997375;28;20038;-87
2023/09/12 07:17:17;;;;;;;6.95;1.52;;;;;;;8.53;100.00;101360.38;5013700;28;20038;-86
2023/09/12 07:19:43;;;;;;;7.05;1.77;;;;;;;8.65;100.00;101361.84;4997606;28;20038;-89
2023/09/12 07:22:09;;;;;;;4.07;1.63;;;;;;;8.91;100.00;101372.72;4997498;28;20030;-89
2023/09/12 07:24:34;;;;;;;3.42;1.58;;;;;;;9.09;100.00;101370.06;4997178;28;20169;-91
2023/09/12 07:27:00;;;;;;;9.02;1.95;;;;;;;9.26;100.00;101376.44;4981058;28;20026;-89
2023/09/12 07:29:26;;;;;;;3.20;1.48;;;;;;;9.43;100.00;101372.09;4980743;28;20477;-89
2023/09/12 07:31:54;;;;;;;4.47;1.58;;;;;;;9.65;100.00;101373.47;4963814;28;20034;-88
2023/09/12 07:34:20;;;;;;;3.90;1.45;;;;;;;9.81;100.00;101375.44;4997644;28;20034;-89
2023/09/12 07:36:46;;;;;;;4.70;1.42;;;;;;;10.00;100.00;101375.28;4964361;28;20034;-89
2023/09/12 07:39:12;;;;;;;2.65;1.25;;;;;;;10.40;100.00;101376.56;4996607;28;20037;-89
2023/09/12 07:41:38;;;;;;;2.13;1.38;;;;;;;11.11;100.00;101374.47;5012874;28;20101;-90
2023/09/12 07:44:04;;;;;;;5.15;1.58;;;;;;;12.57;100.00;101382.72;4998206;28;20062;-90
2023/09/12 07:46:30;;;;;;;3.38;1.30;;;;;;;13.77;100.00;101377.84;4996718;28;20379;-90
2023/09/12 07:48:58;;;;;;;3.05;1.35;;;;;;;14.69;100.00;101383.88;5005161;28;20035;-90
2023/09/12 07:51:24;;;;;;;4.63;1.17;;;;;;;15.29;100.00;101379.16;5008454;28;20042;-91
2023/09/12 07:53:49;;;;;;;4.85;1.27;;;;;;;15.77;100.00;101387.63;5032848;28;20030;-90
2023/09/12 07:56:15;;;;;;;2.60;1.00;;;;;;;16.22;100.00;101395.47;5014908;28;20029;-90
2023/09/12 07:58:41;;;;;;;6.32;1.20;;;;;;;16.50;100.00;101395.47;4997213;28;20030;-90
2023/09/12 08:01:09;;;;;;;3.95;1.20;;;;;;;16.91;100.00;101397.41;4997215;28;20401;-91
2023/09/12 08:03:36;;;;;;;3.03;1.00;;;;;;;17.33;100.00;101395.44;4995954;28;20037;-91
2023/09/12 08:06:02;;;;;;;3.47;1.10;;;;;;;17.82;100.00;101393.50;4995320;28;20046;-94
2023/09/12 08:08:28;;;;;;;2.17;1.00;;;;;;;18.22;100.00;101394.31;4995245;28;20049;-90
2023/09/12 08:10:54;;;;;;;3.85;0.90;;;;;;;18.43;100.00;101407.69;4995454;28;20073;-91
2023/09/12 08:13:22;;;;;;;5.68;2.15;;;;;;;18.39;100.00;101403.72;4997236;28;20026;-91
2023/09/12 08:15:47;;;;;;;2.42;1.25;;;;;;;18.60;100.00;101399.91;4995566;28;20030;-91
2023/09/12 08:18:13;;;;;;;3.67;1.10;;;;;;;19.03;100.00;101398.56;5012566;28;20031;-90
2023/09/12 08:20:39;;;;;;;2.85;1.02;;;;;;;19.00;89.54;101401.69;4996222;28;20164;-93
2023/09/12 08:23:05;;;;;;;5.47;1.30;;;;;;;19.07;88.97;101403.34;4997411;28;20121;-90
2023/09/12 08:25:30;;;;;;;2.47;1.02;;;;;;;18.83;86.02;101399.44;4995877;28;20088;-91
2023/09/12 08:27:56;;;;;;;2.47;1.00;;;;;;;18.72;85.51;101397.34;4995683;28;20080;-93
2023/09/12 08:30:22;;;;;;;3.22;1.17;;;;;;;18.74;83.33;101397.16;5012299;28;20068;-93
2023/09/12 08:32:50;;;;;;;4.35;1.30;;;;;;;18.75;82.90;101393.41;4996704;28;20038;-93
2023/09/12 08:35:16;;;;;;;1.88;1.10;;;;;;;18.98;82.11;101399.19;4995662;28;20381;-93
2023/09/12 08:37:42;;;;;;;2.65;1.15;;;;;;;19.14;80.90;101399.75;4995834;28;20030;-92
2023/09/12 08:40:10;;;;;;;2.13;1.10;;;;;;;19.29;69.84;101403.88;4996589;28;20034;-93
2023/09/12 08:42:43;;;;;;;3.17;1.20;;;;;;;19.24;77.58;101402.84;4995618;28;20030;-92
2023/09/12 08:45:13;;;;;;;2.88;1.10;;;;;;;19.67;75.50;101403.03;4995345;28;20042;-92
2023/09/12 08:47:49;;;;;;;2.92;1.20;;;;;;;19.97;75.18;101407.84;4995870;28;20034;-93
2023/09/12 08:50:17;;;;;;;3.53;1.10;;;;;;;20.24;73.48;101415.81;5011542;28;20033;-93
2023/09/12 08:52:44;;;;;;;2.95;0.95;;;;;;;18.76;74.18;101420.44;4995335;28;20038;-94
2023/09/12 08:55:11;;;;;;;4.75;2.00;;;;;;;17.38;79.97;101425.56;5011894;28;20489;-93
2023/09/12 08:57:42;;;;;;;5.90;1.05;;;;;;;16.24;89.67;101420.56;4995695;28;20120;-94
2023/09/12 09:00:09;;;;;;;5.28;1.40;;;;;;;15.52;94.68;101418.81;4995151;28;20026;-93
2023/09/12 09:02:41;;;;;;;3.17;1.40;;;;;;;15.16;100.00;101428.66;4979059;28;20048;-91
2023/09/12 09:05:09;;;;;;;4.50;0.93;;;;;;;14.98;100.00;101435.47;4994836;28;20038;-92
2023/09/12 09:07:40;;;;;;;2.63;1.02;;;;;;;15.90;99.45;101443.00;5011671;28;20272;-92
2023/09/12 09:10:07;;;;;;;2.13;1.08;;;;;;;17.34;89.17;101441.47;4995660;28;20045;-89
2023/09/12 09:12:34;;;;;;;2.83;0.95;;;;;;;17.10;87.60;101445.56;4998190;28;20085;-88
2023/09/12 09:15:23;;;;;;;5.20;1.58;;;;;;;17.79;81.99;101449.16;4999782;28;20109;-90
2023/09/12 09:17:50;;;;;;;1.73;0.90;;;;;;;17.88;83.76;101453.34;5000594;28;20030;-92
2023/09/12 09:20:30;;;;;;;4.07;1.33;;;;;;;17.45;84.78;101447.34;4995328;28;20034;-91
2023/09/12 09:22:56;;;;;;;3.28;1.10;;;;;;;17.52;80.21;101449.06;4998437;28;20516;-91
2023/09/12 09:25:22;;;;;;;2.97;1.38;;;;;;;17.81;84.39;101452.50;4999442;28;20037;-90
2023/09/12 09:27:48;;;;;;;3.47;1.02;;;;;;;17.32;85.21;101450.88;5017367;28;20078;-90
2023/09/12 09:30:13;;;;;;;6.25;1.30;;;;;;;17.19;86.92;101459.81;5030581;28;20110;-91
2023/09/12 09:32:39;;;;;;;3.25;1.02;;;;;;;17.06;86.40;101457.84;4994755;28;20124;-91
2023/09/12 09:35:05;;;;;;;4.05;1.25;;;;;;;18.24;81.67;101460.28;4995723;28;20049;-90
2023/09/12 09:37:30;;;;;;;1.30;0.90;;;;;;;17.88;79.97;101461.50;4994881;28;20034;-90
2023/09/12 09:39:56;;;;;;;3.22;1.00;;;;;;;18.18;79.00;101459.22;5010764;28;20476;-91
2023/09/12 09:42:22;;;;;;;3.67;1.15;;;;;;;18.58;76.99;101452.94;4994383;28;20034;-91
2023/09/12 09:44:49;;;;;;;2.40;1.02;;;;;;;18.61;73.24;101457.94;4994195;28;20129;-91
2023/09/12 09:47:15;;;;;;;2.65;1.05;;;;;;;17.84;79.45;101459.41;4978422;28;20125;-94
2023/09/12 09:49:40;;;;;;;4.15;1.17;;;;;;;17.26;82.70;101466.09;5011611;28;20036;-93
2023/09/12 09:52:06;;;;;;;3.80;1.38;;;;;;;17.85;80.24;101455.63;4994580;28;20137;-93
2023/09/12 09:54:32;;;;;;;3.42;1.05;;;;;;;17.99;74.31;101463.63;5010995;28;20038;-90
2023/09/12 09:56:57;;;;;;;2.65;1.20;;;;;;;18.55;74.05;101466.94;4997065;28;20086;-92
2023/09/12 09:59:25;;;;;;;4.40;1.25;;;;;;;18.30;74.01;101462.16;5029432;28;20118;-91
2023/09/12 10:01:55;;;;;;;3.38;1.15;;;;;;;18.83;74.28;101467.56;5016462;28;20034;-91
2023/09/12 10:04:22;;;;;;;2.25;1.05;;;;;;;20.56;59.85;101463.88;5017393;28;20110;-91
2023/09/12 10:06:49;;;;;;;1.60;0.95;;;;;;;20.35;61.47;101462.34;5020895;28;20469;-91
2023/09/12 10:09:16;;;;;;;1.75;1.00;;;;;;;20.17;61.70;101465.84;5010622;28;20030;-91
2023/09/12 10:11:46;;;;;;;3.25;1.27;;;;;;;21.07;61.06;101468.16;4994298;28;20038;-92
2023/09/12 10:14:15;;;;;;;2.05;1.00;;;;;;;21.67;57.07;101466.56;5010007;28;20157;-88
2023/09/12 10:16:48;;;;;;;3.97;1.15;;;;;;;21.81;56.26;101461.75;4996566;28;20042;-91
2023/09/12 10:19:19;;;;;;;4.07;1.20;;;;;;;21.72;52.97;101469.44;5014654;28;20030;-93
2023/09/12 10:21:49;;;;;;;6.30;1.38;;;;;;;21.35;53.30;101463.19;4998401;28;20038;-92
2023/09/12 10:24:16;;;;;;;2.33;1.17;;;;;;;21.24;54.80;101462.88;4982015;28;20072;-90
2023/09/12 10:26:45;;;;;;;1.80;0.85;;;;;;;21.03;54.06;101463.38;4997839;28;20540;-91
2023/09/12 10:29:17;;;;;;;4.57;1.30;;;;;;;20.80;55.32;101462.16;4998238;28;20049;-92
2023/09/12 10:31:43;;;;;;;2.70;1.30;;;;;;;20.43;57.84;101451.16;5014488;28;20426;-90
2023/09/12 10:34:12;;;;;;;2.70;1.05;;;;;;;20.95;54.35;101463.66;4998209;28;20054;-90
2023/09/12 10:36:42;;;;;;;3.58;1.10;;;;;;;21.62;53.29;101463.69;4982042;28;20046;-90
2023/09/12 10:39:09;;;;;;;3.03;1.38;;;;;;;21.44;52.93;101468.16;4981743;28;20042;-92
2023/09/12 10:41:39;;;;;;;3.83;1.20;;;;;;;19.41;55.99;101465.91;4998031;28;20551;-92
2023/09/12 10:44:26;;;;;;;4.45;1.35;;;;;;;19.83;59.67;101460.88;4997757;28;20150;-90
2023/09/12 10:46:53;;;;;;;2.13;0.90;;;;;;;20.54;53.93;101457.78;4997755;28;20031;-92
2023/09/12 10:49:19;;;;;;;5.22;1.33;;;;;;;20.42;54.18;101456.81;4981922;28;20034;-92
2023/09/12 10:51:46;;;;;;;3.42;1.00;;;;;;;20.05;54.22;101461.34;5013802;28;20038;-91
2023/09/12 10:54:22;;;;;;;2.63;1.00;;;;;;;19.61;55.81;101455.72;4997874;28;20390;-90
2023/09/12 10:57:05;;;;;;;2.65;1.05;;;;;;;19.26;56.02;101467.00;5014390;28;20549;-92
2023/09/12 10:59:37;;;;;;;2.63;1.10;;;;;;;20.10;55.79;101466.97;4981433;28;20030;-92
2023/09/12 11:02:34;;;;;;;2.55;1.00;;;;;;;20.90;51.49;101469.81;4997676;28;20101;-92
2023/09/12 11:05:03;;;;;;;2.13;0.98;;;;;;;21.08;50.11;101467.09;4998653;28;20030;-90
2023/09/12 11:07:36;;;;;;;3.75;1.30;;;;;;;21.42;49.51;101464.81;4997132;28;20041;-89
2023/09/12 11:10:18;;;;;;;2.88;1.23;;;;;;;21.98;48.55;101468.22;4997097;28;20042;-92
2023/09/12 11:12:44;;;;;;;;;;;;;;;21.96;46.29;101478.56;4998661;28;20027;-90
2023/09/12 11:15:13;;;;;;;2.72;1.20;;;;;;;21.81;43.30;101469.97;4997038;28;20361;-90
2023/09/12 11:17:39;;;;;;;3.38;1.00;;;;;;;21.72;45.23;101461.22;4996423;28;20035;-90
2023/09/12 11:20:12;;;;;;;3.13;1.25;;;;;;;21.68;47.15;101473.72;4997744;28;20463;-92
2023/09/12 11:22:46;;;;;;;2.17;1.10;;;;;;;21.67;48.43;101461.09;4996724;28;20043;-92
2023/09/12 11:25:18;;;;;;;1.98;1.00;;;;;;;20.98;47.30;101472.25;4996842;28;20094;-89